createdAt,value
2022-11-28T00:02:54.961Z,7.50
2022-11-28T00:07:01.834Z,7.50
2022-11-28T00:11:11.291Z,7.60
2022-11-28T00:15:18.040Z,7.60
2022-11-28T00:19:25.839Z,7.70
2022-11-28T00:23:33.516Z,7.70
2022-11-28T00:27:40.280Z,7.70
2022-11-28T00:31:47.011Z,7.70
2022-11-28T00:36:01.190Z,7.70
2022-11-28T00:40:08.246Z,7.70
2022-11-28T00:44:15.242Z,7.80
2022-11-28T00:48:22.630Z,7.80
2022-11-28T00:52:31.458Z,7.70
2022-11-28T00:56:39.885Z,7.70
2022-11-28T01:00:46.605Z,7.80
2022-11-28T01:04:53.251Z,7.80
2022-11-28T01:09:02.215Z,7.80
2022-11-28T01:13:09.952Z,7.80
2022-11-28T01:17:16.625Z,7.90
2022-11-28T01:21:23.803Z,7.90
2022-11-28T01:25:30.709Z,7.90
2022-11-28T01:29:37.436Z,7.90
2022-11-28T01:33:45.000Z,8.00
2022-11-28T01:37:51.679Z,8.00
2022-11-28T01:41:58.666Z,8.00
2022-11-28T01:46:05.686Z,8.00
2022-11-28T01:50:13.771Z,8.10
2022-11-28T01:54:24.039Z,8.00
2022-11-28T01:58:34.308Z,8.00
2022-11-28T02:02:51.337Z,8.10
2022-11-28T02:06:58.030Z,8.10
2022-11-28T02:11:23.615Z,8.10
2022-11-28T02:15:37.669Z,8.10
2022-11-28T02:20:21.790Z,8.10
2022-11-28T02:24:54.860Z,8.20
2022-11-28T02:29:20.567Z,8.30
2022-11-28T02:33:34.056Z,8.20
2022-11-28T02:37:45.975Z,8.20
2022-11-28T02:42:05.719Z,8.20
2022-11-28T02:46:20.365Z,8.20
2022-11-28T02:50:34.590Z,8.20
2022-11-28T02:54:43.538Z,8.30
2022-11-28T02:58:50.412Z,8.20
2022-11-28T03:02:59.802Z,8.30
2022-11-28T03:07:34.244Z,8.30
2022-11-28T03:11:50.058Z,8.20
2022-11-28T03:16:23.295Z,8.20
2022-11-28T03:20:44.864Z,8.20
2022-11-28T03:25:12.088Z,8.20
2022-11-28T03:29:22.086Z,7.90
2022-11-28T03:33:33.153Z,8.20
2022-11-28T03:38:06.628Z,8.20
2022-11-28T03:42:23.892Z,8.20
2022-11-28T03:46:40.403Z,8.20
2022-11-28T03:51:17.594Z,8.20
2022-11-28T03:55:33.029Z,8.20
2022-11-28T03:59:49.858Z,8.20
2022-11-28T04:04:19.352Z,8.30
2022-11-28T04:08:41.250Z,8.30
2022-11-28T04:13:00.211Z,8.30
2022-11-28T04:17:27.331Z,8.30
2022-11-28T04:21:40.575Z,8.30
2022-11-28T04:25:58.166Z,8.30
2022-11-28T04:30:07.130Z,8.20
2022-11-28T04:34:18.490Z,8.20
2022-11-28T04:38:28.205Z,8.20
2022-11-28T04:42:42.477Z,8.20
2022-11-28T04:46:53.922Z,8.10
2022-11-28T04:51:27.972Z,8.20
2022-11-28T04:55:40.437Z,8.20
2022-11-28T04:59:48.322Z,8.20
2022-11-28T05:03:55.272Z,8.20
2022-11-28T05:08:01.999Z,8.20
2022-11-28T05:12:08.770Z,8.30
2022-11-28T05:16:16.349Z,8.20
2022-11-28T05:20:23.132Z,8.20
2022-11-28T05:24:32.393Z,8.20
2022-11-28T05:28:39.311Z,8.30
2022-11-28T05:32:45.990Z,8.20
2022-11-28T05:36:52.671Z,8.20
2022-11-28T05:41:00.056Z,8.30
2022-11-28T05:45:07.150Z,8.30
2022-11-28T05:49:13.971Z,8.30
2022-11-28T05:53:20.820Z,8.30
2022-11-28T05:57:29.899Z,8.30
2022-11-28T06:01:36.621Z,8.30
2022-11-28T06:05:44.217Z,8.30
2022-11-28T06:09:51.045Z,8.40
2022-11-28T06:13:57.880Z,8.30
2022-11-28T06:18:04.537Z,8.40
2022-11-28T06:22:11.357Z,8.40
2022-11-28T06:26:20.605Z,8.40
2022-11-28T06:30:27.269Z,8.40
2022-11-28T06:34:34.470Z,8.40
2022-11-28T06:38:41.150Z,8.40
2022-11-28T06:42:50.366Z,8.40
2022-11-28T06:46:57.157Z,8.40
2022-11-28T06:51:06.206Z,8.40
2022-11-28T06:55:12.847Z,8.40
2022-11-28T06:59:19.492Z,8.40
2022-11-28T07:03:26.176Z,8.40
2022-11-28T07:07:32.953Z,8.40
2022-11-28T07:11:41.654Z,8.40
2022-11-28T07:15:50.132Z,8.50
2022-11-28T07:19:56.808Z,8.40
2022-11-28T07:24:03.821Z,8.50
2022-11-28T07:28:10.486Z,8.50
2022-11-28T07:32:17.146Z,8.40
2022-11-28T07:36:26.382Z,8.40
2022-11-28T07:40:33.067Z,8.50
2022-11-28T07:44:39.750Z,8.50
2022-11-28T07:48:48.157Z,8.50
2022-11-28T07:52:54.851Z,8.50
2022-11-28T07:57:12.561Z,8.50
2022-11-28T08:01:26.368Z,8.50
2022-11-28T08:05:33.533Z,8.50
2022-11-28T08:09:40.513Z,8.50
2022-11-28T08:13:47.912Z,8.50
2022-11-28T08:17:54.568Z,8.60
2022-11-28T08:22:01.227Z,8.70
2022-11-28T08:26:10.483Z,8.60
2022-11-28T08:30:17.166Z,8.60
2022-11-28T08:34:23.838Z,8.70
2022-11-28T08:38:30.640Z,8.70
2022-11-28T08:42:37.326Z,8.80
2022-11-28T08:46:44.121Z,8.80
2022-11-28T08:50:51.518Z,8.70
2022-11-28T08:54:58.162Z,8.80
2022-11-28T08:59:04.876Z,8.90
2022-11-28T09:03:16.880Z,8.90
2022-11-28T09:07:23.588Z,8.90
2022-11-28T09:11:31.259Z,9.00
2022-11-28T09:15:48.954Z,8.90
2022-11-28T09:19:57.832Z,9.00
2022-11-28T09:24:05.250Z,9.00
2022-11-28T09:28:11.934Z,9.00
2022-11-28T09:32:18.602Z,9.00
2022-11-28T09:36:25.385Z,9.00
2022-11-28T09:40:41.962Z,9.10
2022-11-28T09:44:53.598Z,9.10
2022-11-28T09:49:04.630Z,9.10
2022-11-28T09:53:23.994Z,9.10
2022-11-28T09:57:39.542Z,9.20
2022-11-28T10:02:17.064Z,9.20
2022-11-28T10:06:30.357Z,9.30
2022-11-28T10:11:03.457Z,10.50
2022-11-28T10:15:53.001Z,9.50
2022-11-28T10:20:20.728Z,9.50
2022-11-28T10:24:41.254Z,9.60
2022-11-28T10:28:51.684Z,9.70
2022-11-28T10:33:01.144Z,9.60
2022-11-28T10:37:25.376Z,9.70
2022-11-28T10:41:39.701Z,9.70
2022-11-28T10:45:57.532Z,9.60
2022-11-28T10:50:15.218Z,9.70
2022-11-28T10:54:27.969Z,9.70
2022-11-28T10:58:47.311Z,9.80
2022-11-28T11:02:56.573Z,9.80
2022-11-28T11:07:20.226Z,9.80
2022-11-28T11:11:37.538Z,9.90
2022-11-28T11:15:45.929Z,9.90
2022-11-28T11:19:52.829Z,9.90
2022-11-28T11:24:11.495Z,9.80
2022-11-28T11:28:41.696Z,9.90
2022-11-28T11:32:51.389Z,9.90
2022-11-28T11:37:19.701Z,10.00
2022-11-28T11:41:31.114Z,10.10
2022-11-28T11:45:38.109Z,10.10
2022-11-28T11:49:50.058Z,10.10
2022-11-28T11:54:12.917Z,10.10
2022-11-28T11:58:24.069Z,10.10
2022-11-28T12:02:56.972Z,10.10
2022-11-28T12:07:06.416Z,10.00
2022-11-28T12:11:26.442Z,10.00
2022-11-28T12:15:55.745Z,10.00
2022-11-28T12:20:22.187Z,9.90
2022-11-28T12:25:09.534Z,9.90
2022-11-28T12:29:31.391Z,9.90
2022-11-28T12:33:53.066Z,9.90
2022-11-28T12:38:22.976Z,9.80
2022-11-28T12:43:03.675Z,9.80
2022-11-28T12:47:41.420Z,9.90
2022-11-28T12:52:01.695Z,9.90
2022-11-28T12:56:26.989Z,9.90
2022-11-28T13:00:34.284Z,9.90
2022-11-28T13:05:05.104Z,10.00
2022-11-28T13:09:14.835Z,10.00
2022-11-28T13:13:31.767Z,10.00
2022-11-28T13:17:49.008Z,9.90
2022-11-28T13:22:10.156Z,9.90
2022-11-28T13:26:39.894Z,9.90
2022-11-28T13:31:15.625Z,9.90
2022-11-28T13:35:23.165Z,9.90
2022-11-28T13:39:53.855Z,9.90
2022-11-28T13:44:05.995Z,9.90
2022-11-28T13:49:13.048Z,10.00
2022-11-28T13:53:07.159Z,10.00
2022-11-28T13:57:21.957Z,10.00
2022-11-28T14:01:44.157Z,10.00
2022-11-28T14:05:55.367Z,10.10
2022-11-28T14:10:25.809Z,10.00
2022-11-28T14:15:07.385Z,10.10
2022-11-28T14:19:42.028Z,10.10
2022-11-28T14:24:16.303Z,10.10
2022-11-28T14:28:27.360Z,10.00
2022-11-28T14:32:38.841Z,10.00
2022-11-28T14:36:45.580Z,10.00
2022-11-28T14:40:55.383Z,11.30
2022-11-28T14:45:24.253Z,9.90
2022-11-28T14:49:30.975Z,9.90
2022-11-28T14:53:44.152Z,9.90
2022-11-28T14:57:55.843Z,9.90
2022-11-28T15:02:02.536Z,9.90
2022-11-28T15:06:18.240Z,9.80
2022-11-28T15:10:47.017Z,9.80
2022-11-28T15:14:56.907Z,9.80
2022-11-28T15:19:36.029Z,9.70
2022-11-28T15:23:42.919Z,9.80
2022-11-28T15:27:49.855Z,9.80
2022-11-28T15:31:58.575Z,9.70
2022-11-28T15:36:11.921Z,9.70
2022-11-28T15:40:27.643Z,9.70
2022-11-28T15:44:37.729Z,9.70
2022-11-28T15:48:50.531Z,9.70
2022-11-28T15:52:58.007Z,9.80
2022-11-28T15:57:05.783Z,9.80
2022-11-28T16:01:17.305Z,9.80
2022-11-28T16:05:24.152Z,9.80
2022-11-28T16:09:35.475Z,9.80
2022-11-28T16:13:43.434Z,9.80
2022-11-28T16:17:50.499Z,9.80
2022-11-28T16:22:01.124Z,9.80
2022-11-28T16:26:39.982Z,9.80
2022-11-28T16:30:48.412Z,9.80
2022-11-28T16:34:56.014Z,10.10
2022-11-28T16:39:11.995Z,9.80
2022-11-28T16:43:40.176Z,9.80
2022-11-28T16:47:51.943Z,9.80
2022-11-28T16:52:21.335Z,9.80
2022-11-28T16:56:30.804Z,9.80
2022-11-28T17:00:40.545Z,9.80
2022-11-28T17:04:49.015Z,9.70
2022-11-28T17:08:56.837Z,9.80
2022-11-28T17:13:03.512Z,9.80
2022-11-28T17:17:14.559Z,9.80
2022-11-28T17:21:47.310Z,9.70
2022-11-28T17:25:53.940Z,9.80
2022-11-28T17:30:00.760Z,9.70
2022-11-28T17:34:14.625Z,9.80
2022-11-28T17:38:21.308Z,9.70
2022-11-28T17:42:28.026Z,9.70
2022-11-28T17:46:34.781Z,9.70
2022-11-28T17:50:43.137Z,9.70
2022-11-28T17:54:49.901Z,9.80
2022-11-28T17:58:56.760Z,9.70
2022-11-28T18:03:03.461Z,9.70
2022-11-28T18:07:10.113Z,10.80
2022-11-28T18:11:18.499Z,9.70
2022-11-28T18:15:25.207Z,9.70
2022-11-28T18:19:31.886Z,9.70
2022-11-28T18:23:40.112Z,9.70
2022-11-28T18:27:46.800Z,9.70
2022-11-28T18:31:53.544Z,9.70
2022-11-28T18:36:09.708Z,9.70
2022-11-28T18:40:16.480Z,9.70
2022-11-28T18:44:23.157Z,9.70
2022-11-28T18:48:29.900Z,9.70
2022-11-28T18:52:36.672Z,10.30
2022-11-28T18:56:43.378Z,9.80
2022-11-28T19:00:50.141Z,9.80
2022-11-28T19:04:56.876Z,9.80
2022-11-28T19:09:06.205Z,9.80
2022-11-28T19:13:12.885Z,9.70
2022-11-28T19:17:19.756Z,9.70
2022-11-28T19:21:31.645Z,9.80
2022-11-28T19:25:38.347Z,9.80
2022-11-28T19:29:45.270Z,9.80
2022-11-28T19:34:01.729Z,9.70
2022-11-28T19:38:08.723Z,9.80
2022-11-28T19:42:16.234Z,9.80
2022-11-28T19:46:23.148Z,9.80
2022-11-28T19:50:29.823Z,9.70
2022-11-28T19:54:37.114Z,9.70
2022-11-28T19:58:44.706Z,9.70
2022-11-28T20:02:51.400Z,9.60
2022-11-28T20:06:58.278Z,9.50
2022-11-28T20:11:20.892Z,9.30
2022-11-28T20:15:27.487Z,9.20
2022-11-28T20:19:34.135Z,9.10
2022-11-28T20:23:46.353Z,9.00
2022-11-28T20:27:53.031Z,8.90
2022-11-28T20:31:59.844Z,8.90
2022-11-28T20:36:08.656Z,9.00
2022-11-28T20:40:15.481Z,9.00
2022-11-28T20:44:22.192Z,9.00
2022-11-28T20:48:28.887Z,8.90
2022-11-28T20:52:35.620Z,8.90
2022-11-28T20:57:19.030Z,8.90
2022-11-28T21:01:16.580Z,8.90
2022-11-28T21:05:23.304Z,8.90
2022-11-28T21:09:30.003Z,9.00
2022-11-28T21:13:36.720Z,9.00
2022-11-28T21:17:43.363Z,9.00
2022-11-28T21:21:50.080Z,9.00
2022-11-28T21:25:56.767Z,9.00
2022-11-28T21:30:04.656Z,8.90
2022-11-28T21:34:14.483Z,8.80
2022-11-28T21:38:21.391Z,8.90
2022-11-28T21:42:28.042Z,9.00
2022-11-28T21:46:34.730Z,9.10
2022-11-28T21:50:49.112Z,9.20
2022-11-28T21:54:55.813Z,9.30
2022-11-28T21:59:02.698Z,9.20
2022-11-28T22:03:14.107Z,9.20
2022-11-28T22:07:21.273Z,9.30
2022-11-28T22:11:27.941Z,9.20
2022-11-28T22:15:34.599Z,9.30
2022-11-28T22:19:41.679Z,9.30
2022-11-28T22:23:48.457Z,9.30
2022-11-28T22:27:55.179Z,9.40
2022-11-28T22:32:01.972Z,9.30
2022-11-28T22:36:17.669Z,9.20
2022-11-28T22:40:24.359Z,9.20
2022-11-28T22:44:31.031Z,9.30
2022-11-28T22:48:38.830Z,9.30
2022-11-28T22:52:45.645Z,9.30
2022-11-28T22:56:53.128Z,9.40
2022-11-28T23:00:59.763Z,9.30
2022-11-28T23:05:06.694Z,9.30
2022-11-28T23:09:14.633Z,9.40
2022-11-28T23:13:21.352Z,9.40
2022-11-28T23:17:28.047Z,9.40
2022-11-28T23:21:37.784Z,9.30
2022-11-28T23:25:44.458Z,9.10
2022-11-28T23:29:51.176Z,9.20
2022-11-28T23:33:58.406Z,9.10
2022-11-28T23:38:05.056Z,9.00
2022-11-28T23:42:11.722Z,9.00
2022-11-28T23:46:19.803Z,9.00
2022-11-28T23:50:27.169Z,9.10
2022-11-28T23:54:33.856Z,9.00
2022-11-28T23:58:41.307Z,9.10
